sensor_id;sensor_type;location;lat;lon;timestamp;P1;durP1;ratioP1;P2;durP2;ratioP2
9056;SDS011;4563;54.756;9.400;2022-08-19T00:01:14;9.17;;;3.93;;
9056;SDS011;4563;54.756;9.400;2022-08-19T00:03:41;8.40;;;3.63;;
9056;SDS011;4563;54.756;9.400;2022-08-19T00:06:08;7.00;;;3.90;;
9056;SDS011;4563;54.756;9.400;2022-08-19T00:08:35;8.27;;;4.50;;
9056;SDS011;4563;54.756;9.400;2022-08-19T00:11:03;7.03;;;3.87;;
9056;SDS011;4563;54.756;9.400;2022-08-19T00:13:31;8.07;;;4.30;;
9056;SDS011;4563;54.756;9.400;2022-08-19T00:15:58;15.17;;;4.87;;
9056;SDS011;4563;54.756;9.400;2022-08-19T00:18:25;7.87;;;4.50;;
9056;SDS011;4563;54.756;9.400;2022-08-19T00:20:52;7.33;;;3.73;;
9056;SDS011;4563;54.756;9.400;2022-08-19T00:23:20;10.10;;;5.03;;
9056;SDS011;4563;54.756;9.400;2022-08-19T00:25:47;7.07;;;4.17;;
9056;SDS011;4563;54.756;9.400;2022-08-19T00:28:15;9.47;;;4.57;;
9056;SDS011;4563;54.756;9.400;2022-08-19T00:30:42;8.40;;;4.57;;
9056;SDS011;4563;54.756;9.400;2022-08-19T00:33:09;9.53;;;4.43;;
9056;SDS011;4563;54.756;9.400;2022-08-19T00:35:35;8.93;;;4.23;;
9056;SDS011;4563;54.756;9.400;2022-08-19T00:38:03;9.07;;;3.70;;
9056;SDS011;4563;54.756;9.400;2022-08-19T00:40:31;7.00;;;4.43;;
9056;SDS011;4563;54.756;9.400;2022-08-19T00:42:59;12.20;;;4.50;;
9056;SDS011;4563;54.756;9.400;2022-08-19T00:45:27;5.70;;;4.20;;
9056;SDS011;4563;54.756;9.400;2022-08-19T00:47:57;6.37;;;4.30;;
9056;SDS011;4563;54.756;9.400;2022-08-19T00:50:28;9.93;;;5.57;;
9056;SDS011;4563;54.756;9.400;2022-08-19T00:52:55;9.47;;;4.57;;
9056;SDS011;4563;54.756;9.400;2022-08-19T00:55:25;5.23;;;4.27;;
9056;SDS011;4563;54.756;9.400;2022-08-19T00:57:58;7.83;;;4.60;;
9056;SDS011;4563;54.756;9.400;2022-08-19T01:00:31;5.80;;;4.60;;
9056;SDS011;4563;54.756;9.400;2022-08-19T01:03:01;7.40;;;4.40;;
9056;SDS011;4563;54.756;9.400;2022-08-19T01:05:28;7.77;;;3.87;;
9056;SDS011;4563;54.756;9.400;2022-08-19T01:07:56;6.20;;;4.73;;
9056;SDS011;4563;54.756;9.400;2022-08-19T01:10:25;8.10;;;4.17;;
9056;SDS011;4563;54.756;9.400;2022-08-19T01:12:55;7.20;;;4.87;;
9056;SDS011;4563;54.756;9.400;2022-08-19T01:15:26;13.73;;;4.67;;
9056;SDS011;4563;54.756;9.400;2022-08-19T01:17:57;9.83;;;4.77;;
9056;SDS011;4563;54.756;9.400;2022-08-19T01:20:27;6.13;;;4.70;;
9056;SDS011;4563;54.756;9.400;2022-08-19T01:22:56;8.60;;;4.97;;
9056;SDS011;4563;54.756;9.400;2022-08-19T01:25:25;9.90;;;4.40;;
9056;SDS011;4563;54.756;9.400;2022-08-19T01:27:55;8.93;;;5.20;;
9056;SDS011;4563;54.756;9.400;2022-08-19T01:30:23;8.67;;;4.70;;
9056;SDS011;4563;54.756;9.400;2022-08-19T01:32:52;8.73;;;5.77;;
9056;SDS011;4563;54.756;9.400;2022-08-19T01:35:20;14.33;;;5.80;;
9056;SDS011;4563;54.756;9.400;2022-08-19T01:37:49;11.20;;;5.30;;
9056;SDS011;4563;54.756;9.400;2022-08-19T01:40:20;8.23;;;4.97;;
9056;SDS011;4563;54.756;9.400;2022-08-19T01:42:50;11.23;;;5.47;;
9056;SDS011;4563;54.756;9.400;2022-08-19T01:45:19;15.60;;;5.30;;
9056;SDS011;4563;54.756;9.400;2022-08-19T01:47:48;16.30;;;5.27;;
9056;SDS011;4563;54.756;9.400;2022-08-19T01:50:15;10.90;;;5.30;;
9056;SDS011;4563;54.756;9.400;2022-08-19T01:52:42;12.63;;;5.10;;
9056;SDS011;4563;54.756;9.400;2022-08-19T01:55:11;11.17;;;5.20;;
9056;SDS011;4563;54.756;9.400;2022-08-19T01:57:42;10.13;;;4.70;;
9056;SDS011;4563;54.756;9.400;2022-08-19T02:00:14;12.20;;;5.60;;
9056;SDS011;4563;54.756;9.400;2022-08-19T02:02:42;10.10;;;5.07;;
9056;SDS011;4563;54.756;9.400;2022-08-19T02:05:09;11.67;;;5.43;;
9056;SDS011;4563;54.756;9.400;2022-08-19T02:07:38;12.00;;;5.90;;
9056;SDS011;4563;54.756;9.400;2022-08-19T02:10:05;15.07;;;6.20;;
9056;SDS011;4563;54.756;9.400;2022-08-19T02:12:36;17.33;;;5.97;;
9056;SDS011;4563;54.756;9.400;2022-08-19T02:15:04;15.80;;;5.83;;
9056;SDS011;4563;54.756;9.400;2022-08-19T02:17:32;15.40;;;6.47;;
9056;SDS011;4563;54.756;9.400;2022-08-19T02:19:59;14.20;;;5.73;;
9056;SDS011;4563;54.756;9.400;2022-08-19T02:22:26;27.07;;;8.00;;
9056;SDS011;4563;54.756;9.400;2022-08-19T02:24:53;15.90;;;6.00;;
9056;SDS011;4563;54.756;9.400;2022-08-19T02:27:21;16.13;;;7.07;;
9056;SDS011;4563;54.756;9.400;2022-08-19T02:29:49;15.27;;;6.70;;
9056;SDS011;4563;54.756;9.400;2022-08-19T02:32:19;11.43;;;5.90;;
9056;SDS011;4563;54.756;9.400;2022-08-19T02:34:46;16.67;;;6.27;;
9056;SDS011;4563;54.756;9.400;2022-08-19T02:37:13;14.50;;;6.80;;
9056;SDS011;4563;54.756;9.400;2022-08-19T02:39:54;15.37;;;7.00;;
9056;SDS011;4563;54.756;9.400;2022-08-19T02:42:21;17.30;;;7.00;;
9056;SDS011;4563;54.756;9.400;2022-08-19T02:44:48;13.43;;;6.40;;
9056;SDS011;4563;54.756;9.400;2022-08-19T02:47:15;15.17;;;6.87;;
9056;SDS011;4563;54.756;9.400;2022-08-19T02:49:45;17.43;;;7.67;;
9056;SDS011;4563;54.756;9.400;2022-08-19T02:52:14;16.73;;;9.37;;
9056;SDS011;4563;54.756;9.400;2022-08-19T02:54:41;26.43;;;8.50;;
9056;SDS011;4563;54.756;9.400;2022-08-19T02:57:08;22.43;;;8.53;;
9056;SDS011;4563;54.756;9.400;2022-08-19T02:59:35;19.03;;;7.93;;
9056;SDS011;4563;54.756;9.400;2022-08-19T03:02:03;22.33;;;9.07;;
9056;SDS011;4563;54.756;9.400;2022-08-19T03:04:30;19.47;;;8.40;;
9056;SDS011;4563;54.756;9.400;2022-08-19T03:06:58;21.07;;;8.30;;
9056;SDS011;4563;54.756;9.400;2022-08-19T03:09:25;25.23;;;8.83;;
9056;SDS011;4563;54.756;9.400;2022-08-19T03:11:51;23.87;;;8.40;;
9056;SDS011;4563;54.756;9.400;2022-08-19T03:14:18;25.97;;;8.60;;
9056;SDS011;4563;54.756;9.400;2022-08-19T03:16:46;25.53;;;8.73;;
9056;SDS011;4563;54.756;9.400;2022-08-19T03:19:15;22.30;;;9.20;;
9056;SDS011;4563;54.756;9.400;2022-08-19T03:21:43;21.47;;;8.93;;
9056;SDS011;4563;54.756;9.400;2022-08-19T03:24:13;23.07;;;9.17;;
9056;SDS011;4563;54.756;9.400;2022-08-19T03:26:40;24.43;;;10.00;;
9056;SDS011;4563;54.756;9.400;2022-08-19T03:29:09;16.67;;;8.67;;
9056;SDS011;4563;54.756;9.400;2022-08-19T03:31:37;23.33;;;9.50;;
9056;SDS011;4563;54.756;9.400;2022-08-19T03:34:04;23.57;;;9.33;;
9056;SDS011;4563;54.756;9.400;2022-08-19T03:36:31;23.10;;;9.97;;
9056;SDS011;4563;54.756;9.400;2022-08-19T03:38:59;23.40;;;9.97;;
9056;SDS011;4563;54.756;9.400;2022-08-19T03:41:29;29.23;;;10.40;;
9056;SDS011;4563;54.756;9.400;2022-08-19T03:43:57;26.00;;;10.40;;
9056;SDS011;4563;54.756;9.400;2022-08-19T03:46:26;32.70;;;11.80;;
9056;SDS011;4563;54.756;9.400;2022-08-19T03:48:55;19.23;;;8.90;;
9056;SDS011;4563;54.756;9.400;2022-08-19T03:51:23;25.30;;;10.67;;
9056;SDS011;4563;54.756;9.400;2022-08-19T03:53:55;21.90;;;9.23;;
9056;SDS011;4563;54.756;9.400;2022-08-19T03:56:24;21.33;;;9.03;;
9056;SDS011;4563;54.756;9.400;2022-08-19T03:58:54;24.30;;;9.67;;
9056;SDS011;4563;54.756;9.400;2022-08-19T04:01:22;20.87;;;9.93;;
9056;SDS011;4563;54.756;9.400;2022-08-19T04:03:52;29.47;;;9.70;;
9056;SDS011;4563;54.756;9.400;2022-08-19T04:06:20;22.80;;;8.97;;
9056;SDS011;4563;54.756;9.400;2022-08-19T04:08:49;22.87;;;8.93;;
9056;SDS011;4563;54.756;9.400;2022-08-19T04:11:19;24.67;;;10.00;;
9056;SDS011;4563;54.756;9.400;2022-08-19T04:13:47;19.83;;;9.10;;
9056;SDS011;4563;54.756;9.400;2022-08-19T04:16:17;21.67;;;9.80;;
9056;SDS011;4563;54.756;9.400;2022-08-19T04:18:45;23.70;;;9.40;;
9056;SDS011;4563;54.756;9.400;2022-08-19T04:21:15;22.57;;;10.00;;
9056;SDS011;4563;54.756;9.400;2022-08-19T04:23:43;23.40;;;10.27;;
9056;SDS011;4563;54.756;9.400;2022-08-19T04:26:12;19.37;;;9.47;;
9056;SDS011;4563;54.756;9.400;2022-08-19T04:28:40;18.70;;;9.70;;
9056;SDS011;4563;54.756;9.400;2022-08-19T04:31:11;20.20;;;10.27;;
9056;SDS011;4563;54.756;9.400;2022-08-19T04:33:41;24.00;;;9.43;;
9056;SDS011;4563;54.756;9.400;2022-08-19T04:36:08;17.70;;;9.40;;
9056;SDS011;4563;54.756;9.400;2022-08-19T04:38:41;17.00;;;8.50;;
9056;SDS011;4563;54.756;9.400;2022-08-19T04:41:08;18.43;;;9.27;;
9056;SDS011;4563;54.756;9.400;2022-08-19T04:43:52;17.20;;;9.47;;
9056;SDS011;4563;54.756;9.400;2022-08-19T04:46:19;21.40;;;10.23;;
9056;SDS011;4563;54.756;9.400;2022-08-19T04:48:47;21.37;;;10.33;;
9056;SDS011;4563;54.756;9.400;2022-08-19T04:51:14;19.63;;;10.43;;
9056;SDS011;4563;54.756;9.400;2022-08-19T04:53:42;23.37;;;10.80;;
9056;SDS011;4563;54.756;9.400;2022-08-19T04:56:10;29.27;;;10.07;;
9056;SDS011;4563;54.756;9.400;2022-08-19T04:58:39;25.70;;;10.80;;
9056;SDS011;4563;54.756;9.400;2022-08-19T05:01:08;26.97;;;10.90;;
9056;SDS011;4563;54.756;9.400;2022-08-19T05:03:37;25.43;;;12.27;;
9056;SDS011;4563;54.756;9.400;2022-08-19T05:06:06;22.93;;;10.90;;
9056;SDS011;4563;54.756;9.400;2022-08-19T05:08:35;22.40;;;10.43;;
9056;SDS011;4563;54.756;9.400;2022-08-19T05:11:07;21.27;;;10.83;;
9056;SDS011;4563;54.756;9.400;2022-08-19T05:13:36;21.57;;;10.57;;
9056;SDS011;4563;54.756;9.400;2022-08-19T05:16:03;25.73;;;11.03;;
9056;SDS011;4563;54.756;9.400;2022-08-19T05:18:30;24.80;;;11.03;;
9056;SDS011;4563;54.756;9.400;2022-08-19T05:21:17;26.17;;;11.27;;
9056;SDS011;4563;54.756;9.400;2022-08-19T05:24:03;29.20;;;11.43;;
9056;SDS011;4563;54.756;9.400;2022-08-19T05:26:33;23.33;;;12.27;;
9056;SDS011;4563;54.756;9.400;2022-08-19T05:29:00;18.67;;;10.13;;
9056;SDS011;4563;54.756;9.400;2022-08-19T05:31:28;22.10;;;9.80;;
9056;SDS011;4563;54.756;9.400;2022-08-19T05:33:55;23.30;;;10.47;;
9056;SDS011;4563;54.756;9.400;2022-08-19T05:36:25;27.73;;;10.10;;
9056;SDS011;4563;54.756;9.400;2022-08-19T05:38:52;23.10;;;10.67;;
9056;SDS011;4563;54.756;9.400;2022-08-19T05:41:19;18.00;;;10.13;;
9056;SDS011;4563;54.756;9.400;2022-08-19T05:43:54;19.03;;;9.77;;
9056;SDS011;4563;54.756;9.400;2022-08-19T05:46:21;22.50;;;10.50;;
9056;SDS011;4563;54.756;9.400;2022-08-19T05:48:48;21.17;;;10.33;;
9056;SDS011;4563;54.756;9.400;2022-08-19T05:51:15;19.20;;;11.07;;
9056;SDS011;4563;54.756;9.400;2022-08-19T05:53:43;17.83;;;11.10;;
9056;SDS011;4563;54.756;9.400;2022-08-19T05:56:12;16.50;;;9.57;;
9056;SDS011;4563;54.756;9.400;2022-08-19T05:58:41;16.70;;;9.53;;
9056;SDS011;4563;54.756;9.400;2022-08-19T06:01:09;19.23;;;10.43;;
9056;SDS011;4563;54.756;9.400;2022-08-19T06:03:37;17.47;;;10.43;;
9056;SDS011;4563;54.756;9.400;2022-08-19T06:06:04;17.60;;;10.30;;
9056;SDS011;4563;54.756;9.400;2022-08-19T06:08:32;20.00;;;10.70;;
9056;SDS011;4563;54.756;9.400;2022-08-19T06:11:12;17.33;;;10.60;;
9056;SDS011;4563;54.756;9.400;2022-08-19T06:13:43;21.50;;;10.73;;
9056;SDS011;4563;54.756;9.400;2022-08-19T06:16:12;22.77;;;11.10;;
9056;SDS011;4563;54.756;9.400;2022-08-19T06:18:44;23.10;;;10.80;;
9056;SDS011;4563;54.756;9.400;2022-08-19T06:21:11;13.93;;;9.63;;
9056;SDS011;4563;54.756;9.400;2022-08-19T06:23:38;15.90;;;10.50;;
9056;SDS011;4563;54.756;9.400;2022-08-19T06:26:05;17.33;;;10.30;;
9056;SDS011;4563;54.756;9.400;2022-08-19T06:28:34;16.20;;;10.30;;
9056;SDS011;4563;54.756;9.400;2022-08-19T06:31:05;13.87;;;10.47;;
9056;SDS011;4563;54.756;9.400;2022-08-19T06:33:32;18.63;;;10.90;;
9056;SDS011;4563;54.756;9.400;2022-08-19T06:35:59;19.13;;;10.83;;
9056;SDS011;4563;54.756;9.400;2022-08-19T06:38:26;21.67;;;11.73;;
9056;SDS011;4563;54.756;9.400;2022-08-19T06:40:59;20.30;;;11.77;;
9056;SDS011;4563;54.756;9.400;2022-08-19T06:43:26;22.77;;;12.07;;
9056;SDS011;4563;54.756;9.400;2022-08-19T06:46:01;17.43;;;11.10;;
9056;SDS011;4563;54.756;9.400;2022-08-19T06:48:29;15.30;;;11.30;;
9056;SDS011;4563;54.756;9.400;2022-08-19T06:50:56;21.10;;;11.13;;
9056;SDS011;4563;54.756;9.400;2022-08-19T06:53:23;15.67;;;10.93;;
9056;SDS011;4563;54.756;9.400;2022-08-19T06:55:53;14.47;;;10.57;;
9056;SDS011;4563;54.756;9.400;2022-08-19T06:58:24;20.77;;;11.73;;
9056;SDS011;4563;54.756;9.400;2022-08-19T07:00:51;21.97;;;11.73;;
9056;SDS011;4563;54.756;9.400;2022-08-19T07:03:20;17.37;;;10.33;;
9056;SDS011;4563;54.756;9.400;2022-08-19T07:05:47;20.63;;;10.43;;
9056;SDS011;4563;54.756;9.400;2022-08-19T07:08:13;15.87;;;10.40;;
9056;SDS011;4563;54.756;9.400;2022-08-19T07:10:42;16.13;;;11.30;;
9056;SDS011;4563;54.756;9.400;2022-08-19T07:13:11;20.00;;;11.73;;
9056;SDS011;4563;54.756;9.400;2022-08-19T07:15:39;14.83;;;11.00;;
9056;SDS011;4563;54.756;9.400;2022-08-19T07:18:06;21.93;;;12.30;;
9056;SDS011;4563;54.756;9.400;2022-08-19T07:20:34;18.97;;;12.03;;
9056;SDS011;4563;54.756;9.400;2022-08-19T07:23:02;18.40;;;13.20;;
9056;SDS011;4563;54.756;9.400;2022-08-19T07:25:28;20.13;;;11.43;;
9056;SDS011;4563;54.756;9.400;2022-08-19T07:27:55;17.20;;;12.27;;
9056;SDS011;4563;54.756;9.400;2022-08-19T07:30:22;17.33;;;12.53;;
9056;SDS011;4563;54.756;9.400;2022-08-19T07:32:49;17.17;;;12.57;;
9056;SDS011;4563;54.756;9.400;2022-08-19T07:35:16;16.80;;;11.83;;
9056;SDS011;4563;54.756;9.400;2022-08-19T07:37:45;20.53;;;12.13;;
9056;SDS011;4563;54.756;9.400;2022-08-19T07:40:12;20.30;;;12.67;;
9056;SDS011;4563;54.756;9.400;2022-08-19T07:42:40;25.77;;;14.13;;
9056;SDS011;4563;54.756;9.400;2022-08-19T07:45:08;20.83;;;14.17;;
9056;SDS011;4563;54.756;9.400;2022-08-19T07:47:36;17.17;;;12.97;;
9056;SDS011;4563;54.756;9.400;2022-08-19T07:50:05;21.10;;;13.67;;
9056;SDS011;4563;54.756;9.400;2022-08-19T07:52:34;21.23;;;14.70;;
9056;SDS011;4563;54.756;9.400;2022-08-19T07:55:07;18.33;;;13.50;;
9056;SDS011;4563;54.756;9.400;2022-08-19T07:57:35;21.03;;;14.43;;
9056;SDS011;4563;54.756;9.400;2022-08-19T08:00:04;18.40;;;14.37;;
9056;SDS011;4563;54.756;9.400;2022-08-19T08:02:32;19.23;;;13.50;;
9056;SDS011;4563;54.756;9.400;2022-08-19T08:04:59;18.33;;;13.93;;
9056;SDS011;4563;54.756;9.400;2022-08-19T08:07:43;20.53;;;13.43;;
9056;SDS011;4563;54.756;9.400;2022-08-19T08:10:29;16.83;;;13.37;;
9056;SDS011;4563;54.756;9.400;2022-08-19T08:12:56;17.80;;;13.07;;
9056;SDS011;4563;54.756;9.400;2022-08-19T08:15:23;17.60;;;13.43;;
9056;SDS011;4563;54.756;9.400;2022-08-19T08:17:49;17.67;;;12.63;;
9056;SDS011;4563;54.756;9.400;2022-08-19T08:20:17;19.43;;;13.47;;
9056;SDS011;4563;54.756;9.400;2022-08-19T08:22:44;19.37;;;14.27;;
9056;SDS011;4563;54.756;9.400;2022-08-19T08:25:31;20.80;;;13.97;;
9056;SDS011;4563;54.756;9.400;2022-08-19T08:27:57;17.10;;;12.57;;
9056;SDS011;4563;54.756;9.400;2022-08-19T08:30:25;18.87;;;13.83;;
9056;SDS011;4563;54.756;9.400;2022-08-19T08:32:53;18.80;;;13.93;;
9056;SDS011;4563;54.756;9.400;2022-08-19T08:35:21;17.87;;;14.47;;
9056;SDS011;4563;54.756;9.400;2022-08-19T08:37:50;19.83;;;14.50;;
9056;SDS011;4563;54.756;9.400;2022-08-19T08:40:19;19.37;;;14.50;;
9056;SDS011;4563;54.756;9.400;2022-08-19T08:42:52;23.53;;;15.07;;
9056;SDS011;4563;54.756;9.400;2022-08-19T08:45:25;21.07;;;13.70;;
9056;SDS011;4563;54.756;9.400;2022-08-19T08:47:53;19.10;;;13.37;;
9056;SDS011;4563;54.756;9.400;2022-08-19T08:50:25;24.53;;;14.27;;
9056;SDS011;4563;54.756;9.400;2022-08-19T08:52:56;17.23;;;13.60;;
9056;SDS011;4563;54.756;9.400;2022-08-19T08:55:25;19.57;;;13.93;;
9056;SDS011;4563;54.756;9.400;2022-08-19T08:57:55;18.43;;;13.53;;
9056;SDS011;4563;54.756;9.400;2022-08-19T09:00:27;20.43;;;13.63;;
9056;SDS011;4563;54.756;9.400;2022-08-19T09:02:56;15.47;;;13.00;;
9056;SDS011;4563;54.756;9.400;2022-08-19T09:05:26;17.77;;;13.13;;
9056;SDS011;4563;54.756;9.400;2022-08-19T09:08:02;19.90;;;13.63;;
9056;SDS011;4563;54.756;9.400;2022-08-19T09:10:34;23.00;;;14.67;;
9056;SDS011;4563;54.756;9.400;2022-08-19T09:13:07;20.83;;;14.70;;
9056;SDS011;4563;54.756;9.400;2022-08-19T09:15:43;29.07;;;13.90;;
9056;SDS011;4563;54.756;9.400;2022-08-19T09:18:14;21.60;;;14.30;;
9056;SDS011;4563;54.756;9.400;2022-08-19T09:20:42;18.13;;;13.77;;
9056;SDS011;4563;54.756;9.400;2022-08-19T09:23:09;20.77;;;14.53;;
9056;SDS011;4563;54.756;9.400;2022-08-19T09:25:36;17.37;;;13.30;;
9056;SDS011;4563;54.756;9.400;2022-08-19T09:28:06;21.53;;;13.80;;
9056;SDS011;4563;54.756;9.400;2022-08-19T09:30:34;16.73;;;13.33;;
9056;SDS011;4563;54.756;9.400;2022-08-19T09:33:05;19.87;;;14.33;;
9056;SDS011;4563;54.756;9.400;2022-08-19T09:35:32;21.20;;;14.13;;
9056;SDS011;4563;54.756;9.400;2022-08-19T09:38:00;20.40;;;14.23;;
9056;SDS011;4563;54.756;9.400;2022-08-19T09:40:28;19.33;;;14.63;;
9056;SDS011;4563;54.756;9.400;2022-08-19T09:42:55;17.60;;;12.83;;
9056;SDS011;4563;54.756;9.400;2022-08-19T09:45:29;20.17;;;14.57;;
9056;SDS011;4563;54.756;9.400;2022-08-19T09:47:56;19.07;;;13.73;;
9056;SDS011;4563;54.756;9.400;2022-08-19T09:50:23;19.93;;;13.77;;
9056;SDS011;4563;54.756;9.400;2022-08-19T09:52:50;17.47;;;14.13;;
9056;SDS011;4563;54.756;9.400;2022-08-19T09:55:18;23.53;;;13.63;;
9056;SDS011;4563;54.756;9.400;2022-08-19T09:57:45;17.37;;;13.10;;
9056;SDS011;4563;54.756;9.400;2022-08-19T10:00:12;16.87;;;13.07;;
9056;SDS011;4563;54.756;9.400;2022-08-19T10:02:41;20.90;;;13.23;;
9056;SDS011;4563;54.756;9.400;2022-08-19T10:05:08;21.47;;;13.97;;
9056;SDS011;4563;54.756;9.400;2022-08-19T10:07:52;20.30;;;14.73;;
9056;SDS011;4563;54.756;9.400;2022-08-19T10:10:19;19.63;;;13.93;;
9056;SDS011;4563;54.756;9.400;2022-08-19T10:12:46;22.23;;;13.73;;
9056;SDS011;4563;54.756;9.400;2022-08-19T10:15:13;16.33;;;12.57;;
9056;SDS011;4563;54.756;9.400;2022-08-19T10:17:42;16.37;;;13.10;;
9056;SDS011;4563;54.756;9.400;2022-08-19T10:20:10;17.37;;;12.93;;
9056;SDS011;4563;54.756;9.400;2022-08-19T10:22:36;22.07;;;14.20;;
9056;SDS011;4563;54.756;9.400;2022-08-19T10:25:04;17.30;;;12.73;;
9056;SDS011;4563;54.756;9.400;2022-08-19T10:27:32;18.83;;;12.63;;
9056;SDS011;4563;54.756;9.400;2022-08-19T10:29:59;16.80;;;12.20;;
9056;SDS011;4563;54.756;9.400;2022-08-19T10:32:26;14.70;;;12.30;;
9056;SDS011;4563;54.756;9.400;2022-08-19T10:34:55;17.10;;;12.30;;
9056;SDS011;4563;54.756;9.400;2022-08-19T10:37:22;15.30;;;12.47;;
9056;SDS011;4563;54.756;9.400;2022-08-19T10:39:49;16.43;;;12.97;;
9056;SDS011;4563;54.756;9.400;2022-08-19T10:42:16;17.20;;;12.80;;
9056;SDS011;4563;54.756;9.400;2022-08-19T10:44:43;18.33;;;12.77;;
9056;SDS011;4563;54.756;9.400;2022-08-19T10:47:11;18.57;;;13.47;;
9056;SDS011;4563;54.756;9.400;2022-08-19T10:49:38;16.67;;;12.80;;
9056;SDS011;4563;54.756;9.400;2022-08-19T10:52:20;19.57;;;13.60;;
9056;SDS011;4563;54.756;9.400;2022-08-19T10:54:59;17.37;;;13.23;;
9056;SDS011;4563;54.756;9.400;2022-08-19T10:57:44;19.80;;;12.53;;
9056;SDS011;4563;54.756;9.400;2022-08-19T11:00:11;19.07;;;13.70;;
9056;SDS011;4563;54.756;9.400;2022-08-19T11:02:38;16.77;;;12.93;;
9056;SDS011;4563;54.756;9.400;2022-08-19T11:05:07;16.60;;;12.50;;
9056;SDS011;4563;54.756;9.400;2022-08-19T11:07:37;15.93;;;12.33;;
9056;SDS011;4563;54.756;9.400;2022-08-19T11:10:04;19.87;;;13.30;;
9056;SDS011;4563;54.756;9.400;2022-08-19T11:12:32;15.23;;;11.93;;
9056;SDS011;4563;54.756;9.400;2022-08-19T11:14:59;17.77;;;13.00;;
9056;SDS011;4563;54.756;9.400;2022-08-19T11:17:26;14.93;;;11.67;;
9056;SDS011;4563;54.756;9.400;2022-08-19T11:19:55;16.10;;;12.27;;
9056;SDS011;4563;54.756;9.400;2022-08-19T11:22:22;16.60;;;12.40;;
9056;SDS011;4563;54.756;9.400;2022-08-19T11:24:50;16.07;;;12.83;;
9056;SDS011;4563;54.756;9.400;2022-08-19T11:27:18;17.10;;;11.50;;
9056;SDS011;4563;54.756;9.400;2022-08-19T11:29:45;15.87;;;12.10;;
9056;SDS011;4563;54.756;9.400;2022-08-19T11:32:12;16.10;;;11.10;;
9056;SDS011;4563;54.756;9.400;2022-08-19T11:34:40;12.73;;;10.57;;
9056;SDS011;4563;54.756;9.400;2022-08-19T11:37:07;11.73;;;10.60;;
9056;SDS011;4563;54.756;9.400;2022-08-19T11:39:35;12.03;;;9.97;;
9056;SDS011;4563;54.756;9.400;2022-08-19T11:42:05;11.27;;;10.10;;
9056;SDS011;4563;54.756;9.400;2022-08-19T11:44:47;11.83;;;10.57;;
9056;SDS011;4563;54.756;9.400;2022-08-19T11:47:14;15.07;;;9.17;;
9056;SDS011;4563;54.756;9.400;2022-08-19T11:49:41;11.80;;;9.63;;
9056;SDS011;4563;54.756;9.400;2022-08-19T11:52:08;10.67;;;9.20;;
9056;SDS011;4563;54.756;9.400;2022-08-19T11:54:36;11.47;;;9.57;;
9056;SDS011;4563;54.756;9.400;2022-08-19T11:57:04;13.80;;;9.57;;
9056;SDS011;4563;54.756;9.400;2022-08-19T11:59:32;9.47;;;8.57;;
9056;SDS011;4563;54.756;9.400;2022-08-19T12:01:58;10.37;;;9.37;;
9056;SDS011;4563;54.756;9.400;2022-08-19T12:04:25;10.07;;;9.07;;
9056;SDS011;4563;54.756;9.400;2022-08-19T12:06:53;11.30;;;10.10;;
9056;SDS011;4563;54.756;9.400;2022-08-19T12:09:20;10.60;;;8.57;;
9056;SDS011;4563;54.756;9.400;2022-08-19T12:11:48;10.13;;;9.10;;
9056;SDS011;4563;54.756;9.400;2022-08-19T12:14:17;13.63;;;8.17;;
9056;SDS011;4563;54.756;9.400;2022-08-19T12:16:44;8.47;;;7.60;;
9056;SDS011;4563;54.756;9.400;2022-08-19T12:19:12;8.70;;;7.90;;
9056;SDS011;4563;54.756;9.400;2022-08-19T12:21:39;9.43;;;8.50;;
9056;SDS011;4563;54.756;9.400;2022-08-19T12:24:06;11.10;;;7.70;;
9056;SDS011;4563;54.756;9.400;2022-08-19T12:26:33;9.23;;;8.33;;
9056;SDS011;4563;54.756;9.400;2022-08-19T12:29:00;9.20;;;8.37;;
9056;SDS011;4563;54.756;9.400;2022-08-19T12:31:31;10.03;;;8.27;;
9056;SDS011;4563;54.756;9.400;2022-08-19T12:33:58;8.27;;;7.47;;
9056;SDS011;4563;54.756;9.400;2022-08-19T12:36:26;14.57;;;8.40;;
9056;SDS011;4563;54.756;9.400;2022-08-19T12:38:53;9.43;;;8.37;;
9056;SDS011;4563;54.756;9.400;2022-08-19T12:41:20;8.57;;;7.77;;
9056;SDS011;4563;54.756;9.400;2022-08-19T12:43:48;7.60;;;6.90;;
9056;SDS011;4563;54.756;9.400;2022-08-19T12:46:16;11.90;;;8.37;;
9056;SDS011;4563;54.756;9.400;2022-08-19T12:48:45;7.53;;;6.83;;
9056;SDS011;4563;54.756;9.400;2022-08-19T12:51:13;9.30;;;7.23;;
9056;SDS011;4563;54.756;9.400;2022-08-19T12:53:41;8.17;;;7.37;;
9056;SDS011;4563;54.756;9.400;2022-08-19T12:56:09;8.67;;;7.87;;
9056;SDS011;4563;54.756;9.400;2022-08-19T12:58:39;8.53;;;7.77;;
9056;SDS011;4563;54.756;9.400;2022-08-19T13:01:07;7.60;;;6.90;;
9056;SDS011;4563;54.756;9.400;2022-08-19T13:03:35;7.43;;;6.83;;
9056;SDS011;4563;54.756;9.400;2022-08-19T13:06:04;7.10;;;6.53;;
9056;SDS011;4563;54.756;9.400;2022-08-19T13:08:31;7.43;;;6.90;;
9056;SDS011;4563;54.756;9.400;2022-08-19T13:11:05;7.97;;;5.93;;
9056;SDS011;4563;54.756;9.400;2022-08-19T13:13:35;7.73;;;7.03;;
9056;SDS011;4563;54.756;9.400;2022-08-19T13:16:05;12.13;;;7.67;;
9056;SDS011;4563;54.756;9.400;2022-08-19T13:18:33;6.73;;;6.23;;
9056;SDS011;4563;54.756;9.400;2022-08-19T13:21:01;6.53;;;6.03;;
9056;SDS011;4563;54.756;9.400;2022-08-19T13:23:31;6.03;;;5.53;;
9056;SDS011;4563;54.756;9.400;2022-08-19T13:25:59;7.10;;;6.40;;
9056;SDS011;4563;54.756;9.400;2022-08-19T13:28:27;5.93;;;5.53;;
9056;SDS011;4563;54.756;9.400;2022-08-19T13:31:15;7.40;;;6.70;;
9056;SDS011;4563;54.756;9.400;2022-08-19T13:34:00;7.83;;;6.50;;
9056;SDS011;4563;54.756;9.400;2022-08-19T13:36:28;7.23;;;6.47;;
9056;SDS011;4563;54.756;9.400;2022-08-19T13:38:56;8.13;;;6.73;;
9056;SDS011;4563;54.756;9.400;2022-08-19T13:41:22;7.30;;;6.63;;
9056;SDS011;4563;54.756;9.400;2022-08-19T13:43:49;7.30;;;6.70;;
9056;SDS011;4563;54.756;9.400;2022-08-19T13:46:16;7.77;;;7.07;;
9056;SDS011;4563;54.756;9.400;2022-08-19T13:48:44;7.53;;;6.77;;
9056;SDS011;4563;54.756;9.400;2022-08-19T13:51:11;8.00;;;7.30;;
9056;SDS011;4563;54.756;9.400;2022-08-19T13:53:40;7.43;;;6.90;;
9056;SDS011;4563;54.756;9.400;2022-08-19T13:56:08;7.23;;;6.60;;
9056;SDS011;4563;54.756;9.400;2022-08-19T13:58:36;8.17;;;7.57;;
9056;SDS011;4563;54.756;9.400;2022-08-19T14:01:04;8.37;;;7.67;;
9056;SDS011;4563;54.756;9.400;2022-08-19T14:03:33;8.67;;;7.70;;
9056;SDS011;4563;54.756;9.400;2022-08-19T14:06:00;7.60;;;6.90;;
9056;SDS011;4563;54.756;9.400;2022-08-19T14:08:27;7.87;;;7.17;;
9056;SDS011;4563;54.756;9.400;2022-08-19T14:10:58;7.70;;;6.97;;
9056;SDS011;4563;54.756;9.400;2022-08-19T14:13:25;6.47;;;5.83;;
9056;SDS011;4563;54.756;9.400;2022-08-19T14:15:52;9.53;;;6.80;;
9056;SDS011;4563;54.756;9.400;2022-08-19T14:18:19;8.03;;;6.87;;
9056;SDS011;4563;54.756;9.400;2022-08-19T14:20:46;12.27;;;7.07;;
9056;SDS011;4563;54.756;9.400;2022-08-19T14:23:14;7.10;;;6.40;;
9056;SDS011;4563;54.756;9.400;2022-08-19T14:25:40;6.73;;;6.17;;
9056;SDS011;4563;54.756;9.400;2022-08-19T14:28:09;7.53;;;6.90;;
9056;SDS011;4563;54.756;9.400;2022-08-19T14:30:36;7.80;;;6.17;;
9056;SDS011;4563;54.756;9.400;2022-08-19T14:33:04;7.07;;;6.40;;
9056;SDS011;4563;54.756;9.400;2022-08-19T14:35:32;7.17;;;6.53;;
9056;SDS011;4563;54.756;9.400;2022-08-19T14:38:00;7.20;;;6.60;;
9056;SDS011;4563;54.756;9.400;2022-08-19T14:40:28;7.37;;;6.70;;
9056;SDS011;4563;54.756;9.400;2022-08-19T14:42:57;7.47;;;6.90;;
9056;SDS011;4563;54.756;9.400;2022-08-19T14:45:27;6.57;;;5.87;;
9056;SDS011;4563;54.756;9.400;2022-08-19T14:47:55;6.50;;;6.00;;
9056;SDS011;4563;54.756;9.400;2022-08-19T14:50:24;6.47;;;5.87;;
9056;SDS011;4563;54.756;9.400;2022-08-19T14:52:57;6.90;;;6.30;;
9056;SDS011;4563;54.756;9.400;2022-08-19T14:55:25;7.03;;;6.43;;
9056;SDS011;4563;54.756;9.400;2022-08-19T14:57:52;6.30;;;5.73;;
9056;SDS011;4563;54.756;9.400;2022-08-19T15:00:18;7.50;;;6.70;;
9056;SDS011;4563;54.756;9.400;2022-08-19T15:02:47;6.27;;;5.67;;
9056;SDS011;4563;54.756;9.400;2022-08-19T15:05:14;7.47;;;6.77;;
9056;SDS011;4563;54.756;9.400;2022-08-19T15:07:41;5.40;;;5.00;;